Time;durP1;ratioP1;P1;durP2;ratioP2;P2;SDS_P1;SDS_P2;PMS_P1;PMS_P2;Temp;Humidity;BMP_temperature;BMP_pressure;BME280_temperature;BME280_humidity;BME280_pressure;Samples;Min_cycle;Max_cycle;Signal;HPM_P1;HPM_P2
2023/04/05 00:00:44;;;;;;;9.93;6.07;;;1.70;99.90;;;;;;5055381;28;20052;-42
2023/04/05 00:03:10;;;;;;;12.80;6.43;;;1.60;99.90;;;;;;5056771;28;20484;-38
2023/04/05 00:05:36;;;;;;;11.48;6.32;;;1.60;99.90;;;;;;5057143;28;20491;-39
2023/04/05 00:08:03;;;;;;;14.32;6.38;;;1.50;99.90;;;;;;5056652;28;20048;-38
2023/04/05 00:10:31;;;;;;;10.43;5.93;;;1.50;99.90;;;;;;5067890;28;20097;-38
2023/04/05 00:12:57;;;;;;;9.10;5.93;;;1.40;99.90;;;;;;5077088;28;20044;-38
2023/04/05 00:15:23;;;;;;;9.40;5.60;;;1.40;99.90;;;;;;5077176;28;20486;-38
2023/04/05 00:17:49;;;;;;;14.02;6.53;;;1.30;99.90;;;;;;5071737;28;20439;-41
2023/04/05 00:20:15;;;;;;;11.93;6.10;;;1.30;99.90;;;;;;5067678;28;20383;-37
2023/04/05 00:22:45;;;;;;;10.63;6.07;;;1.20;99.90;;;;;;5053012;28;20125;-43
2023/04/05 00:25:11;;;;;;;9.48;6.35;;;1.20;99.90;;;;;;5055868;28;20045;-44
2023/04/05 00:27:37;;;;;;;10.60;6.82;;;1.20;99.90;;;;;;5055178;28;20528;-39
2023/04/05 00:30:03;;;;;;;9.15;6.07;;;1.20;99.90;;;;;;5067368;28;20054;-38
2023/04/05 00:32:29;;;;;;;12.05;6.35;;;1.20;99.90;;;;;;5067161;28;20406;-38
2023/04/05 00:34:55;;;;;;;10.85;6.30;;;1.20;99.90;;;;;;5063898;28;20407;-37
2023/04/05 00:37:21;;;;;;;9.90;6.07;;;1.20;99.90;;;;;;5048989;28;20509;-43
2023/04/05 00:39:46;;;;;;;11.02;6.43;;;1.20;99.90;;;;;;5074812;28;20152;-43
2023/04/05 00:42:13;;;;;;;11.73;6.93;;;1.10;99.90;;;;;;5076173;28;20055;-35
2023/04/05 00:44:38;;;;;;;9.43;6.45;;;1.10;99.90;;;;;;5076890;28;20203;-38
2023/04/05 00:47:07;;;;;;;11.02;6.90;;;1.10;99.90;;;;;;5052281;28;20064;-42
2023/04/05 00:49:35;;;;;;;10.43;6.95;;;1.10;99.90;;;;;;5055359;28;20585;-35
2023/04/05 00:52:01;;;;;;;11.55;6.40;;;1.00;99.90;;;;;;5068106;28;20530;-43
2023/04/05 00:54:28;;;;;;;11.48;7.13;;;1.00;99.90;;;;;;5068508;28;20305;-43
2023/04/05 00:56:58;;;;;;;11.60;6.40;;;0.90;99.90;;;;;;5075602;28;20098;-34
2023/04/05 00:59:25;;;;;;;10.70;6.28;;;0.90;99.90;;;;;;5056926;28;20513;-41
2023/04/05 01:02:07;;;;;;;7.93;5.78;;;0.80;99.90;;;;;;5074526;28;20135;-46
2023/04/05 01:04:35;;;;;;;10.63;5.25;;;0.70;99.90;;;;;;5075644;28;20048;-39
2023/04/05 01:07:18;;;;;;;10.70;6.40;;;0.70;99.90;;;;;;5075095;28;20055;-43
2023/04/05 01:09:58;;;;;;;13.25;6.50;;;0.70;99.90;;;;;;5055071;28;20355;-42
2023/04/05 01:12:30;;;;;;;10.25;6.82;;;0.60;99.90;;;;;;5037754;28;20060;-38
2023/04/05 01:14:58;;;;;;;;;;;0.60;99.90;;;;;;5055543;28;20088;-44
2023/04/05 01:17:26;;;;;;;13.02;7.40;;;0.60;99.90;;;;;;5055067;28;19928;-41
2023/04/05 01:20:05;;;;;;;14.57;7.20;;;0.50;99.90;;;;;;5054513;28;20155;-40
2023/04/05 01:22:56;;;;;;;13.68;6.93;;;0.50;99.90;;;;;;5054843;28;20052;-41
2023/04/05 01:25:50;;;;;;;11.23;6.68;;;0.40;99.90;;;;;;5069509;28;20054;-43
2023/04/05 01:29:02;;;;;;;11.40;7.35;;;0.40;99.90;;;;;;5074998;28;20528;-38
2023/04/05 01:31:44;;;;;;;10.00;7.00;;;0.30;99.90;;;;;;5062417;28;20074;-41
2023/04/05 01:34:42;;;;;;;14.70;7.60;;;0.30;99.90;;;;;;5023986;28;20105;-40
2023/04/05 01:37:13;;;;;;;9.50;6.45;;;0.30;99.90;;;;;;4990113;28;20572;-41
2023/04/05 01:39:40;;;;;;;13.05;7.78;;;0.20;99.90;;;;;;4992322;28;20175;-38
2023/04/05 01:42:05;;;;;;;8.95;6.75;;;0.20;99.90;;;;;;4992772;28;20076;-43
2023/04/05 01:44:31;;;;;;;12.63;6.88;;;0.20;99.90;;;;;;4964134;28;20058;-38
2023/04/05 01:46:57;;;;;;;9.23;6.32;;;0.10;99.90;;;;;;4968947;28;20080;-40
2023/04/05 01:49:23;;;;;;;10.98;7.05;;;0.10;99.90;;;;;;4964607;28;20058;-41
2023/04/05 01:51:49;;;;;;;10.95;6.57;;;0.00;99.90;;;;;;4972940;28;20170;-43
2023/04/05 01:54:15;;;;;;;11.10;7.15;;;0.00;99.90;;;;;;4973474;28;20575;-36
2023/04/05 01:56:40;;;;;;;8.90;6.47;;;0.00;99.90;;;;;;4972648;28;20289;-43
2023/04/05 01:59:06;;;;;;;13.43;7.55;;;-0.10;99.90;;;;;;4973309;28;20417;-41
2023/04/05 02:01:32;;;;;;;10.75;6.80;;;-0.10;99.90;;;;;;4972133;28;20065;-37
2023/04/05 02:03:57;;;;;;;14.32;6.85;;;-0.10;99.90;;;;;;4973248;28;20137;-39
2023/04/05 02:06:23;;;;;;;12.30;6.72;;;-0.10;99.90;;;;;;4967834;28;20421;-34
2023/04/05 02:08:49;;;;;;;10.23;6.63;;;-0.10;99.90;;;;;;4965604;28;20113;-42
2023/04/05 02:11:14;;;;;;;9.18;6.22;;;-0.20;99.90;;;;;;4989190;28;20045;-37
2023/04/05 02:13:40;;;;;;;11.77;6.95;;;-0.20;99.90;;;;;;5016044;28;20150;-41
2023/04/05 02:16:06;;;;;;;10.68;7.03;;;-0.20;99.90;;;;;;5074998;28;20098;-43
2023/04/05 02:18:31;;;;;;;10.30;6.43;;;-0.20;99.90;;;;;;5074846;28;20429;-39
2023/04/05 02:21:05;;;;;;;11.27;7.00;;;-0.20;99.90;;;;;;5073491;28;20075;-42
2023/04/05 02:23:30;;;;;;;;;;;-0.20;99.90;;;;;;5075085;28;20052;-41
2023/04/05 02:25:57;;;;;;;12.45;7.07;;;-0.30;99.90;;;;;;5050733;28;19929;-39
2023/04/05 02:28:23;;;;;;;12.43;6.88;;;-0.20;99.90;;;;;;5066575;28;20380;-34
2023/04/05 02:30:48;;;;;;;12.82;6.65;;;-0.20;99.90;;;;;;5073821;28;20109;-41
2023/04/05 02:33:14;;;;;;;12.18;7.22;;;-0.20;99.90;;;;;;5042084;28;20563;-42
2023/04/05 02:35:40;;;;;;;11.63;7.55;;;-0.20;99.90;;;;;;5068742;28;20513;-44
2023/04/05 02:38:06;;;;;;;10.52;7.82;;;-0.20;99.90;;;;;;5057098;28;20551;-45
2023/04/05 02:40:32;;;;;;;10.05;7.38;;;-0.20;99.90;;;;;;5073490;28;20477;-38
2023/04/05 02:42:57;;;;;;;13.82;7.55;;;-0.20;99.90;;;;;;5074664;28;20047;-36
2023/04/05 02:45:23;;;;;;;11.88;7.57;;;-0.30;99.90;;;;;;5074906;28;20052;-34
2023/04/05 02:47:49;;;;;;;19.77;7.38;;;-0.30;99.90;;;;;;5063313;28;20076;-43
2023/04/05 02:50:19;;;;;;;13.40;7.72;;;-0.30;99.90;;;;;;5073532;28;20048;-35
2023/04/05 02:52:52;;;;;;;14.15;7.07;;;-0.30;99.90;;;;;;5058619;28;20071;-36
2023/04/05 02:55:18;;;;;;;;;;;-0.30;99.90;;;;;;5064799;28;20047;-34
2023/04/05 02:57:44;;;;;;;9.52;6.75;;;-0.20;99.90;;;;;;5077674;28;19924;-40
2023/04/05 03:00:10;;;;;;;16.52;7.80;;;-0.30;99.90;;;;;;5077754;28;20048;-37
2023/04/05 03:02:38;;;;;;;13.65;7.47;;;-0.30;99.90;;;;;;5058318;28;20112;-44
2023/04/05 03:05:05;;;;;;;11.95;7.85;;;-0.30;99.90;;;;;;5066689;28;20074;-44
2023/04/05 03:07:32;;;;;;;13.98;7.32;;;-0.20;99.90;;;;;;5077173;28;20062;-43
2023/04/05 03:09:58;;;;;;;11.00;7.07;;;-0.30;99.90;;;;;;5056716;28;20053;-36
2023/04/05 03:12:24;;;;;;;10.50;7.30;;;-0.30;99.90;;;;;;5057545;28;20053;-36
2023/04/05 03:14:49;;;;;;;13.70;7.05;;;-0.30;99.90;;;;;;5057746;28;20483;-38
2023/04/05 03:17:15;;;;;;;11.77;7.10;;;-0.30;99.90;;;;;;5057846;28;20083;-34
2023/04/05 03:19:41;;;;;;;12.80;8.05;;;-0.30;99.90;;;;;;5064745;28;20052;-40
2023/04/05 03:22:07;;;;;;;12.07;7.13;;;-0.30;99.90;;;;;;5077989;28;20513;-41
2023/04/05 03:24:32;;;;;;;11.50;7.28;;;-0.30;99.90;;;;;;5077978;28;20043;-39
2023/04/05 03:27:03;;;;;;;11.18;7.85;;;-0.30;99.90;;;;;;5077479;28;20098;-39
2023/04/05 03:29:29;;;;;;;12.90;7.30;;;-0.30;99.90;;;;;;5076483;28;20063;-40
2023/04/05 03:31:57;;;;;;;12.80;6.97;;;-0.40;99.90;;;;;;5063202;28;20106;-35
2023/04/05 03:34:27;;;;;;;12.75;7.25;;;-0.40;99.90;;;;;;5066045;28;20040;-37
2023/04/05 03:36:54;;;;;;;13.45;7.60;;;-0.40;99.90;;;;;;5060108;28;20051;-40
2023/04/05 03:39:20;;;;;;;8.93;5.30;;;-0.40;99.90;;;;;;5076310;28;20149;-38
2023/04/05 03:41:46;;;;;;;12.02;7.28;;;-0.40;99.90;;;;;;5073831;28;20437;-37
2023/04/05 03:44:11;;;;;;;12.48;7.68;;;-0.50;99.90;;;;;;5057372;28;20428;-39
2023/04/05 03:46:37;;;;;;;8.18;6.43;;;-0.50;99.90;;;;;;5073059;28;20410;-41
2023/04/05 03:49:02;;;;;;;9.48;5.95;;;-0.60;99.90;;;;;;5038842;28;20139;-36
2023/04/05 03:51:28;;;;;;;6.32;4.05;;;-0.70;99.90;;;;;;5055960;28;20136;-35
2023/04/05 03:53:54;;;;;;;9.20;5.20;;;-0.70;99.90;;;;;;5057135;28;20131;-40
2023/04/05 03:56:20;;;;;;;14.32;6.78;;;-0.70;99.90;;;;;;5057214;28;20517;-35
2023/04/05 03:58:46;;;;;;;11.85;6.57;;;-0.70;99.90;;;;;;5057304;28;20056;-39
2023/04/05 04:01:12;;;;;;;12.32;6.72;;;-0.70;99.90;;;;;;5055243;28;20056;-43
2023/04/05 04:03:38;;;;;;;14.68;7.53;;;-0.70;99.90;;;;;;5055522;28;20062;-37
2023/04/05 04:06:05;;;;;;;13.05;7.75;;;-0.70;99.90;;;;;;5038433;28;20052;-41
2023/04/05 04:08:30;;;;;;;17.40;7.20;;;-0.70;99.90;;;;;;5056300;28;20053;-39
2023/04/05 04:10:56;;;;;;;13.77;9.10;;;-0.70;99.90;;;;;;5055837;28;20110;-38
2023/04/05 04:13:22;;;;;;;13.68;9.02;;;-0.70;99.90;;;;;;5056707;28;20056;-39
2023/04/05 04:15:47;;;;;;;14.50;9.50;;;-0.70;99.90;;;;;;5056376;28;20150;-40
2023/04/05 04:18:13;;;;;;;16.35;9.13;;;-0.60;99.90;;;;;;5038955;28;20052;-41
2023/04/05 04:20:39;;;;;;;13.73;8.55;;;-0.60;99.90;;;;;;5071871;28;20052;-36
2023/04/05 04:23:08;;;;;;;14.35;8.63;;;-0.60;99.90;;;;;;5059411;28;20047;-36
2023/04/05 04:25:35;;;;;;;15.32;8.45;;;-0.60;99.90;;;;;;5077334;28;20444;-37
2023/04/05 04:28:03;;;;;;;13.40;7.93;;;-0.60;99.90;;;;;;5077183;28;20060;-39
2023/04/05 04:30:28;;;;;;;11.95;8.15;;;-0.60;99.90;;;;;;5061938;28;20477;-38
2023/04/05 04:32:55;;;;;;;11.88;8.48;;;-0.60;99.90;;;;;;5064736;28;20052;-38
2023/04/05 04:35:24;;;;;;;14.70;7.97;;;-0.60;99.90;;;;;;5055891;28;20047;-34
2023/04/05 04:37:58;;;;;;;18.25;8.88;;;-0.60;99.90;;;;;;5056581;28;20098;-35
2023/04/05 04:40:26;;;;;;;;;;;-0.70;99.90;;;;;;5055234;28;20049;-40
2023/04/05 04:42:52;;;;;;;14.93;9.65;;;-0.70;99.90;;;;;;5038309;28;19930;-36
2023/04/05 04:45:18;;;;;;;16.60;8.98;;;-0.70;99.90;;;;;;5069018;28;20056;-39
2023/04/05 04:47:48;;;;;;;14.05;8.25;;;-0.70;99.90;;;;;;5057601;28;20512;-36
2023/04/05 04:50:15;;;;;;;16.15;7.63;;;-0.60;99.90;;;;;;5054549;28;20067;-41
2023/04/05 04:52:41;;;;;;;14.98;8.50;;;-0.70;99.90;;;;;;5055842;28;20178;-41
2023/04/05 04:55:13;;;;;;;11.70;8.05;;;-0.70;99.90;;;;;;5044369;28;20477;-38
2023/04/05 04:57:40;;;;;;;12.10;7.80;;;-0.70;99.90;;;;;;5070680;28;20535;-39
2023/04/05 05:00:15;;;;;;;11.73;8.30;;;-0.70;99.90;;;;;;5074871;28;20074;-41
2023/04/05 05:02:42;;;;;;;12.95;6.30;;;-0.80;99.90;;;;;;5057318;28;20051;-42
2023/04/05 05:05:09;;;;;;;11.00;6.75;;;-0.80;99.90;;;;;;5076041;28;20515;-35
2023/04/05 05:07:35;;;;;;;8.60;6.18;;;-0.70;99.90;;;;;;5059522;28;20094;-35
2023/04/05 05:10:02;;;;;;;11.55;7.70;;;-0.80;99.90;;;;;;5063030;28;20083;-38
2023/04/05 05:12:30;;;;;;;13.25;7.13;;;-0.80;99.90;;;;;;5075245;28;20047;-43
2023/04/05 05:14:55;;;;;;;12.77;8.13;;;-0.80;99.90;;;;;;5066511;28;20093;-39
2023/04/05 05:17:22;;;;;;;14.05;8.25;;;-0.70;99.90;;;;;;5068456;28;20547;-38
2023/04/05 05:19:48;;;;;;;10.25;7.22;;;-0.60;99.90;;;;;;5054508;28;20502;-41
2023/04/05 05:22:14;;;;;;;12.68;9.10;;;-0.30;99.90;;;;;;5055019;28;20131;-43
2023/04/05 05:24:40;;;;;;;14.63;8.40;;;0.00;99.90;;;;;;5055365;28;20417;-41
2023/04/05 05:27:05;;;;;;;10.25;7.68;;;0.30;99.90;;;;;;5070093;28;20612;-40
2023/04/05 05:29:31;;;;;;;14.65;9.70;;;0.90;99.90;;;;;;5073602;28;20051;-42
2023/04/05 05:31:57;;;;;;;14.65;9.32;;;1.50;99.90;;;;;;5070603;28;20824;-41
2023/04/05 05:34:23;;;;;;;13.73;8.80;;;1.90;99.90;;;;;;5062393;28;20059;-36
2023/04/05 05:36:51;;;;;;;17.33;10.75;;;2.50;99.90;;;;;;5055837;28;20044;-42
2023/04/05 05:39:17;;;;;;;13.57;8.32;;;3.30;99.90;;;;;;5062661;28;20569;-42
2023/04/05 05:41:43;;;;;;;14.60;8.90;;;3.90;99.90;;;;;;5073496;28;20050;-39
2023/04/05 05:44:09;;;;;;;15.15;9.27;;;4.60;99.90;;;;;;5063408;28;20460;-42
2023/04/05 05:46:35;;;;;;;13.65;8.50;;;5.10;99.90;;;;;;5056190;28;20082;-37
2023/04/05 05:49:00;;;;;;;13.90;7.53;;;5.80;99.90;;;;;;5053946;28;20155;-40
2023/04/05 05:51:26;;;;;;;10.43;7.68;;;6.40;99.90;;;;;;5038064;28;20056;-37
2023/04/05 05:53:52;;;;;;;9.90;6.45;;;7.10;99.90;;;;;;5057057;28;20131;-42
2023/04/05 05:56:17;;;;;;;12.07;8.13;;;7.80;99.90;;;;;;5039391;28;20083;-43
2023/04/05 05:58:43;;;;;;;13.10;9.18;;;8.30;99.90;;;;;;5074976;28;20388;-43
2023/04/05 06:01:10;;;;;;;11.48;8.60;;;8.80;99.90;;;;;;5073783;28;20527;-45
2023/04/05 06:03:36;;;;;;;12.45;10.10;;;9.40;99.90;;;;;;5066902;28;20095;-38
2023/04/05 06:06:04;;;;;;;14.82;9.43;;;10.00;99.90;;;;;;5069571;28;20414;-41
2023/04/05 06:08:30;;;;;;;13.65;9.93;;;10.40;99.90;;;;;;5065533;28;20590;-40
2023/04/05 06:10:57;;;;;;;13.35;9.13;;;10.70;99.90;;;;;;5053096;28;20128;-39
2023/04/05 06:13:23;;;;;;;12.40;8.18;;;10.90;99.90;;;;;;5063279;28;20048;-42
2023/04/05 06:15:49;;;;;;;11.23;7.80;;;11.40;99.90;;;;;;5058937;28;20051;-46
2023/04/05 06:18:15;;;;;;;12.82;9.32;;;11.70;99.90;;;;;;5054541;28;20106;-38
2023/04/05 06:20:44;;;;;;;13.13;9.13;;;12.10;99.90;;;;;;5069364;28;20106;-46
2023/04/05 06:23:12;;;;;;;9.75;8.32;;;12.20;99.90;;;;;;5065425;28;20415;-40
2023/04/05 06:25:38;;;;;;;13.55;9.90;;;12.60;99.90;;;;;;5058300;28;20044;-41
2023/04/05 06:28:05;;;;;;;13.10;9.82;;;12.70;99.90;;;;;;5078202;28;20051;-49
2023/04/05 06:30:32;;;;;;;10.82;8.90;;;13.00;99.90;;;;;;5077614;28;20076;-46
2023/04/05 06:32:58;;;;;;;16.60;11.00;;;13.20;99.90;;;;;;5065917;28;20521;-42
2023/04/05 06:35:24;;;;;;;13.38;9.70;;;13.50;99.90;;;;;;5068958;28;20032;-43
2023/04/05 06:37:51;;;;;;;14.43;10.32;;;13.80;99.60;;;;;;5067685;28;20086;-36
2023/04/05 06:40:17;;;;;;;13.57;10.48;;;14.10;99.40;;;;;;5057429;28;20056;-41
2023/04/05 06:42:43;;;;;;;12.48;10.63;;;14.30;98.70;;;;;;5058594;28;20152;-44
2023/04/05 06:45:10;;;;;;;12.77;10.40;;;14.80;98.70;;;;;;5058728;28;20403;-43
2023/04/05 06:47:37;;;;;;;16.15;11.70;;;14.90;98.30;;;;;;5058300;28;20388;-42
2023/04/05 06:50:04;;;;;;;11.85;10.05;;;15.00;97.50;;;;;;5038724;28;20525;-36
2023/04/05 06:52:30;;;;;;;12.93;10.73;;;15.00;97.20;;;;;;5058443;28;20052;-38
2023/04/05 06:54:55;;;;;;;14.43;11.05;;;15.20;97.50;;;;;;5057692;28;20052;-37
2023/04/05 06:57:21;;;;;;;12.07;10.80;;;15.10;96.80;;;;;;5058836;28;20049;-46
2023/04/05 06:59:47;;;;;;;13.35;11.95;;;15.40;96.60;;;;;;5056911;28;20462;-42
2023/04/05 07:02:12;;;;;;;13.32;11.40;;;15.30;96.30;;;;;;5056819;28;20044;-41
2023/04/05 07:04:38;;;;;;;13.10;10.60;;;15.20;96.60;;;;;;5062088;28;20058;-42
2023/04/05 07:07:05;;;;;;;12.90;11.00;;;15.50;96.60;;;;;;5076386;28;20044;-44
2023/04/05 07:09:34;;;;;;;12.73;10.27;;;15.20;96.10;;;;;;5057915;28;20426;-44
2023/04/05 07:12:02;;;;;;;13.70;11.57;;;14.40;96.00;;;;;;5048303;28;20421;-40
2023/04/05 07:14:32;;;;;;;13.75;11.07;;;13.30;97.00;;;;;;5044128;28;20071;-42
2023/04/05 07:16:58;;;;;;;14.40;11.52;;;12.50;97.60;;;;;;5037352;28;20048;-41
2023/04/05 07:19:25;;;;;;;15.27;11.88;;;12.00;98.10;;;;;;5043545;28;20527;-44
2023/04/05 07:21:51;;;;;;;13.40;11.85;;;11.40;98.80;;;;;;5054917;28;20080;-37
2023/04/05 07:24:16;;;;;;;13.00;11.63;;;11.20;99.40;;;;;;5050379;28;20116;-38
2023/04/05 07:26:42;;;;;;;14.30;10.68;;;10.80;99.90;;;;;;5044256;28;20040;-43
2023/04/05 07:29:09;;;;;;;13.98;11.45;;;10.50;99.90;;;;;;5051180;28;20494;-41
2023/04/05 07:31:34;;;;;;;13.75;12.07;;;10.10;99.90;;;;;;5056369;28;20053;-44
2023/04/05 07:34:01;;;;;;;13.95;12.10;;;9.90;99.90;;;;;;5049455;28;20852;-37
2023/04/05 07:36:29;;;;;;;13.90;11.43;;;9.90;99.90;;;;;;5049846;28;20174;-40
2023/04/05 07:38:56;;;;;;;17.95;13.13;;;9.70;99.90;;;;;;5053922;28;20574;-41
2023/04/05 07:41:23;;;;;;;14.27;11.32;;;9.50;99.90;;;;;;5055701;28;20105;-40
2023/04/05 07:43:49;;;;;;;17.40;13.23;;;9.20;99.90;;;;;;5056780;28;20049;-46
2023/04/05 07:46:15;;;;;;;13.88;11.35;;;9.10;99.90;;;;;;5056748;28;20051;-43
2023/04/05 07:48:41;;;;;;;15.48;12.02;;;9.20;99.90;;;;;;5055958;28;20808;-47
2023/04/05 07:51:08;;;;;;;18.30;13.27;;;9.20;99.90;;;;;;5038247;28;20055;-37
2023/04/05 07:53:35;;;;;;;13.63;12.23;;;9.20;99.90;;;;;;5038586;28;20045;-43
2023/04/05 07:56:09;;;;;;;12.40;10.73;;;9.20;99.90;;;;;;5055823;28;20098;-39
2023/04/05 07:58:39;;;;;;;16.90;12.73;;;9.00;99.90;;;;;;5057150;28;20059;-41
2023/04/05 08:01:05;;;;;;;13.45;11.75;;;8.80;99.90;;;;;;5055997;28;20134;-42
2023/04/05 08:03:33;;;;;;;10.90;9.80;;;8.80;99.90;;;;;;5055502;28;20046;-40
2023/04/05 08:06:12;;;;;;;13.43;11.75;;;8.90;99.90;;;;;;5058646;28;20048;-43
2023/04/05 08:08:39;;;;;;;13.15;11.30;;;8.90;99.90;;;;;;5057298;28;20499;-38
2023/04/05 08:11:05;;;;;;;13.98;11.55;;;8.90;99.90;;;;;;5055327;28;20074;-38
2023/04/05 08:13:32;;;;;;;15.88;11.60;;;8.90;99.90;;;;;;5066526;28;20593;-45
2023/04/05 08:16:00;;;;;;;13.93;11.70;;;8.90;99.90;;;;;;5071896;28;20388;-40
2023/04/05 08:18:26;;;;;;;12.63;10.20;;;9.00;99.90;;;;;;5038188;28;20064;-39
2023/04/05 08:20:53;;;;;;;11.27;9.95;;;9.10;99.90;;;;;;5058412;28;20048;-36
2023/04/05 08:23:19;;;;;;;15.05;9.20;;;9.00;99.90;;;;;;5057008;28;20574;-44
2023/04/05 08:25:45;;;;;;;11.63;10.48;;;9.00;99.90;;;;;;5059903;28;20032;-37
2023/04/05 08:28:11;;;;;;;11.43;10.32;;;9.10;99.90;;;;;;5055867;28;20040;-43
2023/04/05 08:30:38;;;;;;;12.05;9.95;;;9.10;99.90;;;;;;5043323;28;20415;-39
2023/04/05 08:33:04;;;;;;;17.92;11.65;;;9.10;99.90;;;;;;5062452;28;20509;-42
2023/04/05 08:35:30;;;;;;;15.00;10.18;;;9.20;99.90;;;;;;5055528;28;20095;-39
2023/04/05 08:37:56;;;;;;;13.65;10.40;;;9.20;99.90;;;;;;5054336;28;20451;-40
2023/04/05 08:40:38;;;;;;;12.07;10.00;;;9.40;99.90;;;;;;5055799;28;20059;-39
2023/04/05 08:43:15;;;;;;;14.50;10.15;;;9.40;99.90;;;;;;5037205;28;20498;-40
2023/04/05 08:45:51;;;;;;;10.93;8.20;;;9.50;99.90;;;;;;5064585;28;20052;-40
2023/04/05 08:48:20;;;;;;;12.00;10.00;;;9.50;99.90;;;;;;5040314;28;20131;-37
2023/04/05 08:50:50;;;;;;;13.98;10.77;;;9.50;99.90;;;;;;5053945;28;20157;-39
2023/04/05 08:53:16;;;;;;;12.32;9.07;;;9.60;99.90;;;;;;5054757;28;20470;-44
2023/04/05 08:55:42;;;;;;;11.93;9.00;;;9.60;99.90;;;;;;5055406;28;20146;-38
2023/04/05 08:58:13;;;;;;;13.73;10.13;;;9.60;99.90;;;;;;5055214;28;20075;-45
2023/04/05 09:00:40;;;;;;;13.88;9.43;;;9.70;99.90;;;;;;5054856;28;20044;-43
2023/04/05 09:03:07;;;;;;;10.75;9.07;;;9.70;99.90;;;;;;5037525;28;20052;-42
2023/04/05 09:05:36;;;;;;;11.07;8.48;;;9.70;99.90;;;;;;5036584;28;20131;-42
2023/04/05 09:08:02;;;;;;;10.07;8.32;;;9.80;99.90;;;;;;5042092;28;20040;-40
2023/04/05 09:10:28;;;;;;;10.40;7.65;;;9.80;99.90;;;;;;5065617;28;20501;-41
2023/04/05 09:12:55;;;;;;;10.52;7.75;;;9.80;99.90;;;;;;5074903;28;20136;-39
2023/04/05 09:15:23;;;;;;;11.85;8.43;;;9.80;99.90;;;;;;5074949;28;20545;-39
2023/04/05 09:17:49;;;;;;;9.32;6.75;;;10.10;99.90;;;;;;5075275;28;20071;-46
2023/04/05 09:20:15;;;;;;;11.43;7.65;;;10.00;99.90;;;;;;5074234;28;20497;-43
2023/04/05 09:22:45;;;;;;;8.07;6.63;;;10.10;99.70;;;;;;5056627;28;20051;-47
2023/04/05 09:25:31;;;;;;;7.75;6.60;;;10.20;98.90;;;;;;5074444;28;20163;-45
2023/04/05 09:28:02;;;;;;;8.07;6.88;;;10.30;99.30;;;;;;5074608;28;20052;-37
2023/04/05 09:30:28;;;;;;;8.00;6.20;;;10.20;99.50;;;;;;5070437;28;20279;-44
2023/04/05 09:32:54;;;;;;;9.55;7.25;;;10.10;99.10;;;;;;5056335;28;20044;-39
2023/04/05 09:35:27;;;;;;;9.35;7.25;;;10.00;99.10;;;;;;5036796;28;20477;-45
2023/04/05 09:37:56;;;;;;;10.15;7.13;;;10.10;98.90;;;;;;5055012;28;20057;-44
2023/04/05 09:40:22;;;;;;;8.80;6.70;;;10.10;98.90;;;;;;5040552;28;20105;-40
2023/04/05 09:42:48;;;;;;;9.88;6.65;;;10.00;98.20;;;;;;5075180;28;20052;-42
2023/04/05 09:45:15;;;;;;;9.27;6.80;;;10.10;98.10;;;;;;5056184;28;20469;-42
2023/04/05 09:47:41;;;;;;;6.32;5.50;;;10.10;97.50;;;;;;5064336;28;20216;-48
2023/04/05 09:50:15;;;;;;;8.10;6.78;;;10.20;98.10;;;;;;5053876;28;20052;-42
2023/04/05 09:52:42;;;;;;;8.30;7.20;;;10.20;98.80;;;;;;5054463;28;20052;-48
2023/04/05 09:55:09;;;;;;;9.48;6.93;;;10.20;98.60;;;;;;5054609;28;20131;-40
2023/04/05 09:57:40;;;;;;;9.68;7.03;;;10.10;97.90;;;;;;5053677;28;20043;-40
2023/04/05 10:00:16;;;;;;;11.65;7.47;;;10.30;97.10;;;;;;5053428;28;20628;-45
2023/04/05 10:02:42;;;;;;;8.93;7.35;;;10.40;97.90;;;;;;5035542;28;20177;-40
2023/04/05 10:05:12;;;;;;;9.68;7.78;;;10.50;97.80;;;;;;5054521;28;20040;-45
2023/04/05 10:07:39;;;;;;;12.70;8.20;;;10.40;97.90;;;;;;5055830;28;20051;-41
2023/04/05 10:10:05;;;;;;;10.85;7.75;;;10.50;99.50;;;;;;5061663;28;20058;-37
2023/04/05 10:12:32;;;;;;;8.95;6.97;;;10.60;98.70;;;;;;5041511;28;20056;-44
2023/04/05 10:14:58;;;;;;;11.30;7.50;;;10.70;97.20;;;;;;5053903;28;20044;-45
2023/04/05 10:17:30;;;;;;;9.20;7.28;;;10.80;99.50;;;;;;5068384;28;20123;-42
2023/04/05 10:20:19;;;;;;;9.85;7.38;;;10.80;98.90;;;;;;5073048;28;20044;-42
2023/04/05 10:22:50;;;;;;;10.80;7.38;;;10.80;99.90;;;;;;4976727;28;20132;-41
2023/04/05 10:25:31;;;;;;;7.50;6.55;;;10.80;98.90;;;;;;4978248;28;20051;-48
2023/04/05 10:28:13;;;;;;;9.05;6.82;;;11.00;97.10;;;;;;4980268;28;20057;-48
2023/04/05 10:30:43;;;;;;;9.15;6.68;;;11.10;97.90;;;;;;4990651;28;20200;-46
2023/04/05 10:33:19;;;;;;;8.05;6.03;;;11.10;96.30;;;;;;4989249;28;20997;-43
2023/04/05 10:36:21;;;;;;;8.85;7.20;;;11.10;97.30;;;;;;4962481;28;20046;-36
2023/04/05 10:39:03;;;;;;;10.25;8.02;;;11.20;99.90;;;;;;4970626;28;20164;-45
2023/04/05 10:41:34;;;;;;;7.70;6.85;;;11.20;98.20;;;;;;4970123;28;20058;-48
2023/04/05 10:44:02;;;;;;;8.88;7.10;;;11.20;99.60;;;;;;4972570;28;20148;-38
2023/04/05 10:46:30;;;;;;;9.02;7.35;;;11.20;97.00;;;;;;4970992;28;20086;-46
2023/04/05 10:49:15;;;;;;;11.35;7.90;;;11.10;97.00;;;;;;4970512;28;20789;-42
2023/04/05 10:51:43;;;;;;;8.63;6.70;;;11.00;96.60;;;;;;4956066;28;20053;-49
2023/04/05 10:54:10;;;;;;;10.15;7.15;;;10.90;96.80;;;;;;4980612;28;20058;-42
2023/04/05 10:56:37;;;;;;;7.82;6.97;;;10.90;96.80;;;;;;4971607;28;20092;-45
2023/04/05 10:59:04;;;;;;;9.05;7.18;;;11.00;96.70;;;;;;4981297;28;20208;-45
2023/04/05 11:01:30;;;;;;;8.30;7.38;;;10.80;95.90;;;;;;5035064;28;20209;-41
2023/04/05 11:04:09;;;;;;;7.82;7.00;;;10.90;98.10;;;;;;5050402;28;20076;-41
2023/04/05 11:06:34;;;;;;;9.55;7.18;;;11.00;96.90;;;;;;5048870;28;20044;-46
2023/04/05 11:09:16;;;;;;;10.25;7.18;;;11.10;97.90;;;;;;5043894;28;20740;-39
2023/04/05 11:11:45;;;;;;;7.65;6.85;;;11.30;97.30;;;;;;5042471;28;20063;-40
2023/04/05 11:14:35;;;;;;;9.10;7.45;;;11.20;95.10;;;;;;5042625;28;20055;-50
2023/04/05 11:17:02;;;;;;;10.10;7.60;;;11.40;97.30;;;;;;5056309;28;20052;-43
2023/04/05 11:19:45;;;;;;;8.98;7.55;;;11.40;95.70;;;;;;5074938;28;20126;-47
2023/04/05 11:22:12;;;;;;;8.32;6.88;;;11.50;97.50;;;;;;5076545;28;20048;-46
2023/04/05 11:24:56;;;;;;;7.57;6.75;;;11.50;98.10;;;;;;5077272;28;20097;-45
2023/04/05 11:27:28;;;;;;;9.57;7.35;;;11.60;96.70;;;;;;5054028;28;20055;-43
2023/04/05 11:29:54;;;;;;;10.18;7.50;;;11.50;96.90;;;;;;5055859;28;20090;-39
2023/04/05 11:32:21;;;;;;;9.23;7.80;;;11.60;99.70;;;;;;5057942;28;20048;-43
2023/04/05 11:35:06;;;;;;;9.15;7.80;;;11.50;96.70;;;;;;5063800;28;20047;-40
2023/04/05 11:37:51;;;;;;;8.73;7.82;;;11.30;95.60;;;;;;5069046;28;20044;-42
2023/04/05 11:40:29;;;;;;;7.30;6.57;;;11.30;97.40;;;;;;5059834;28;20052;-45
2023/04/05 11:43:10;;;;;;;11.32;8.70;;;11.50;96.30;;;;;;5070611;28;20234;-40
2023/04/05 11:45:38;;;;;;;9.63;7.65;;;11.40;96.50;;;;;;5052022;28;20131;-41
2023/04/05 11:48:05;;;;;;;10.15;7.90;;;11.50;96.20;;;;;;5061359;28;20049;-43
2023/04/05 11:50:32;;;;;;;11.65;7.28;;;11.60;97.90;;;;;;5066959;28;20070;-44
2023/04/05 11:53:10;;;;;;;9.57;7.57;;;11.60;96.70;;;;;;5070623;28;20107;-46
2023/04/05 11:55:40;;;;;;;11.27;7.60;;;11.70;96.90;;;;;;5021913;28;20122;-45
2023/04/05 11:58:13;;;;;;;8.43;6.85;;;11.70;94.30;;;;;;5063813;28;20040;-45
2023/04/05 12:00:44;;;;;;;9.73;7.32;;;11.70;96.10;;;;;;5046357;28;20055;-47
2023/04/05 12:03:14;;;;;;;7.72;6.53;;;11.70;94.90;;;;;;5058822;28;20144;-48
2023/04/05 12:05:46;;;;;;;8.18;6.63;;;11.70;96.10;;;;;;5038378;28;20062;-47
2023/04/05 12:08:11;;;;;;;8.32;6.72;;;11.70;95.60;;;;;;5049273;28;20044;-41
2023/04/05 12:10:37;;;;;;;7.65;6.47;;;11.60;96.70;;;;;;5055752;28;20052;-43
2023/04/05 12:13:03;;;;;;;9.88;6.60;;;11.60;94.40;;;;;;5063156;28;20044;-43
2023/04/05 12:15:28;;;;;;;7.68;6.72;;;11.70;95.30;;;;;;5050085;28;20106;-43
2023/04/05 12:17:54;;;;;;;10.18;7.13;;;11.70;95.00;;;;;;5075089;28;20048;-43
2023/04/05 12:20:25;;;;;;;9.45;6.75;;;11.70;96.80;;;;;;5056802;28;20052;-41
2023/04/05 12:22:52;;;;;;;10.40;7.00;;;11.80;95.70;;;;;;5072022;28;20395;-38
2023/04/05 12:25:19;;;;;;;8.57;7.18;;;11.80;96.50;;;;;;5054568;28;20045;-47
2023/04/05 12:27:45;;;;;;;7.47;6.72;;;11.80;95.00;;;;;;5052816;28;20071;-44
2023/04/05 12:30:13;;;;;;;8.10;6.15;;;11.80;94.90;;;;;;5068509;28;20055;-50
2023/04/05 12:32:54;;;;;;;9.55;6.32;;;11.80;95.90;;;;;;5048457;28;20530;-43
2023/04/05 12:35:23;;;;;;;7.78;6.05;;;11.90;95.80;;;;;;5054389;28;20083;-41
2023/04/05 12:37:51;;;;;;;8.80;6.85;;;11.70;92.50;;;;;;5056074;28;20094;-46
2023/04/05 12:40:22;;;;;;;9.20;7.20;;;11.60;93.50;;;;;;5036433;28;20063;-37
2023/04/05 12:42:48;;;;;;;9.48;6.88;;;11.70;95.30;;;;;;5056147;28;20824;-37
2023/04/05 12:45:13;;;;;;;7.47;6.30;;;11.70;95.40;;;;;;5054406;28;20132;-43
2023/04/05 12:47:56;;;;;;;10.80;6.45;;;11.80;96.10;;;;;;5055112;28;20048;-45
2023/04/05 12:50:27;;;;;;;7.97;6.57;;;11.70;96.10;;;;;;5054557;28;20585;-37